Terminal Aerodrome Forecast
Issued by NWS

Home | Current Version | Previous Version | Text Only | Print | Product List | Glossary On
Versions: 1 2 3 4 5 6 7 8 9 10 11 12 13 14 15 16 17 18 19 20 21 22 23 24 25 26
000
FTUS46 KMFR 012349
TAFRBG
TAF
KRBG 012349Z 0200/0224 VRB03KT P6SM -SHRA SCT025 BKN035 OVC050
     FM020200 VRB02KT P6SM VCSH BKN025 OVC050
     FM021100 17005KT 5SM -RA BR OVC020=

USA.gov is the U.S. government's official web portal to all federal, state and local government web resources and services.